sensor_id;sensor_type;location;lat;lon;timestamp;P1;durP1;ratioP1;P2;durP2;ratioP2
22064;SDS011;11197;53.110;8.468;2023-08-06T00:00:22;3.38;;;2.58;;
22064;SDS011;11197;53.110;8.468;2023-08-06T00:02:49;5.05;;;2.63;;
22064;SDS011;11197;53.110;8.468;2023-08-06T00:05:16;3.42;;;2.72;;
22064;SDS011;11197;53.110;8.468;2023-08-06T00:07:48;4.38;;;2.60;;
22064;SDS011;11197;53.110;8.468;2023-08-06T00:10:14;4.32;;;2.58;;
22064;SDS011;11197;53.110;8.468;2023-08-06T00:12:41;3.42;;;2.50;;
22064;SDS011;11197;53.110;8.468;2023-08-06T00:15:07;4.57;;;2.90;;
22064;SDS011;11197;53.110;8.468;2023-08-06T00:17:33;5.03;;;2.88;;
22064;SDS011;11197;53.110;8.468;2023-08-06T00:19:59;5.93;;;2.85;;
22064;SDS011;11197;53.110;8.468;2023-08-06T00:22:30;4.00;;;2.90;;
22064;SDS011;11197;53.110;8.468;2023-08-06T00:25:03;5.05;;;3.20;;
22064;SDS011;11197;53.110;8.468;2023-08-06T00:27:33;5.57;;;3.40;;
22064;SDS011;11197;53.110;8.468;2023-08-06T00:29:59;5.90;;;2.88;;
22064;SDS011;11197;53.110;8.468;2023-08-06T00:32:25;3.47;;;2.67;;
22064;SDS011;11197;53.110;8.468;2023-08-06T00:34:52;5.60;;;3.35;;
22064;SDS011;11197;53.110;8.468;2023-08-06T00:37:18;4.78;;;2.90;;
22064;SDS011;11197;53.110;8.468;2023-08-06T00:39:44;5.00;;;3.15;;
22064;SDS011;11197;53.110;8.468;2023-08-06T00:42:11;4.60;;;2.95;;
22064;SDS011;11197;53.110;8.468;2023-08-06T00:44:37;5.03;;;3.30;;
22064;SDS011;11197;53.110;8.468;2023-08-06T00:47:04;4.28;;;3.42;;
22064;SDS011;11197;53.110;8.468;2023-08-06T00:49:31;4.45;;;3.00;;
22064;SDS011;11197;53.110;8.468;2023-08-06T00:51:57;3.55;;;2.80;;
22064;SDS011;11197;53.110;8.468;2023-08-06T00:54:23;6.32;;;3.30;;
22064;SDS011;11197;53.110;8.468;2023-08-06T00:56:52;6.40;;;3.67;;
22064;SDS011;11197;53.110;8.468;2023-08-06T00:59:19;6.53;;;3.83;;
22064;SDS011;11197;53.110;8.468;2023-08-06T01:01:48;5.75;;;3.80;;
22064;SDS011;11197;53.110;8.468;2023-08-06T01:04:17;5.97;;;3.65;;
22064;SDS011;11197;53.110;8.468;2023-08-06T01:06:49;5.75;;;3.47;;
22064;SDS011;11197;53.110;8.468;2023-08-06T01:09:42;4.97;;;3.70;;
22064;SDS011;11197;53.110;8.468;2023-08-06T01:12:54;4.90;;;3.65;;
22064;SDS011;11197;53.110;8.468;2023-08-06T01:15:30;5.38;;;3.70;;
22064;SDS011;11197;53.110;8.468;2023-08-06T01:18:18;6.30;;;4.10;;
22064;SDS011;11197;53.110;8.468;2023-08-06T01:20:46;5.22;;;3.55;;
22064;SDS011;11197;53.110;8.468;2023-08-06T01:23:11;5.07;;;4.20;;
22064;SDS011;11197;53.110;8.468;2023-08-06T01:28:42;5.90;;;4.68;;
22064;SDS011;11197;53.110;8.468;2023-08-06T01:31:18;7.50;;;4.40;;
22064;SDS011;11197;53.110;8.468;2023-08-06T01:33:48;6.80;;;4.32;;
22064;SDS011;11197;53.110;8.468;2023-08-06T01:36:15;8.65;;;4.38;;
22064;SDS011;11197;53.110;8.468;2023-08-06T01:38:44;5.35;;;4.22;;
22064;SDS011;11197;53.110;8.468;2023-08-06T01:41:13;5.57;;;4.03;;
22064;SDS011;11197;53.110;8.468;2023-08-06T01:43:42;5.28;;;3.83;;
22064;SDS011;11197;53.110;8.468;2023-08-06T01:46:07;5.38;;;3.70;;
22064;SDS011;11197;53.110;8.468;2023-08-06T01:48:35;5.20;;;3.60;;
22064;SDS011;11197;53.110;8.468;2023-08-06T01:51:00;4.78;;;3.70;;
22064;SDS011;11197;53.110;8.468;2023-08-06T01:53:28;5.93;;;3.75;;
22064;SDS011;11197;53.110;8.468;2023-08-06T01:55:54;5.30;;;3.10;;
22064;SDS011;11197;53.110;8.468;2023-08-06T01:58:20;4.32;;;3.40;;
22064;SDS011;11197;53.110;8.468;2023-08-06T02:00:46;4.63;;;3.30;;
22064;SDS011;11197;53.110;8.468;2023-08-06T02:03:11;4.47;;;3.30;;
22064;SDS011;11197;53.110;8.468;2023-08-06T02:05:37;3.63;;;3.00;;
22064;SDS011;11197;53.110;8.468;2023-08-06T02:08:04;4.50;;;3.13;;
22064;SDS011;11197;53.110;8.468;2023-08-06T02:10:30;3.72;;;3.03;;
22064;SDS011;11197;53.110;8.468;2023-08-06T02:12:57;4.90;;;3.40;;
22064;SDS011;11197;53.110;8.468;2023-08-06T02:15:23;4.43;;;3.00;;
22064;SDS011;11197;53.110;8.468;2023-08-06T02:17:49;5.18;;;3.45;;
22064;SDS011;11197;53.110;8.468;2023-08-06T02:20:15;7.40;;;3.10;;
22064;SDS011;11197;53.110;8.468;2023-08-06T02:22:42;5.35;;;3.33;;
22064;SDS011;11197;53.110;8.468;2023-08-06T02:25:08;5.72;;;3.22;;
22064;SDS011;11197;53.110;8.468;2023-08-06T02:27:34;4.45;;;3.00;;
22064;SDS011;11197;53.110;8.468;2023-08-06T02:30:02;4.55;;;3.35;;
22064;SDS011;11197;53.110;8.468;2023-08-06T02:32:29;4.93;;;3.42;;
22064;SDS011;11197;53.110;8.468;2023-08-06T02:34:58;6.22;;;3.25;;
22064;SDS011;11197;53.110;8.468;2023-08-06T02:37:24;5.07;;;2.80;;
22064;SDS011;11197;53.110;8.468;2023-08-06T02:39:50;3.90;;;2.97;;
22064;SDS011;11197;53.110;8.468;2023-08-06T02:42:19;5.57;;;3.50;;
22064;SDS011;11197;53.110;8.468;2023-08-06T02:44:45;4.15;;;3.00;;
22064;SDS011;11197;53.110;8.468;2023-08-06T02:47:12;4.38;;;3.22;;
22064;SDS011;11197;53.110;8.468;2023-08-06T02:49:37;4.50;;;3.30;;
22064;SDS011;11197;53.110;8.468;2023-08-06T02:52:03;5.20;;;2.80;;
22064;SDS011;11197;53.110;8.468;2023-08-06T02:54:29;4.97;;;3.28;;
22064;SDS011;11197;53.110;8.468;2023-08-06T02:56:55;4.68;;;3.08;;
22064;SDS011;11197;53.110;8.468;2023-08-06T02:59:28;5.22;;;3.05;;
22064;SDS011;11197;53.110;8.468;2023-08-06T03:02:13;3.90;;;3.38;;
22064;SDS011;11197;53.110;8.468;2023-08-06T03:04:48;5.63;;;3.30;;
22064;SDS011;11197;53.110;8.468;2023-08-06T03:07:16;5.38;;;3.40;;
22064;SDS011;11197;53.110;8.468;2023-08-06T03:09:52;5.20;;;3.20;;
22064;SDS011;11197;53.110;8.468;2023-08-06T03:12:20;3.50;;;3.08;;
22064;SDS011;11197;53.110;8.468;2023-08-06T03:14:48;5.00;;;3.15;;
22064;SDS011;11197;53.110;8.468;2023-08-06T03:17:15;5.05;;;3.08;;
22064;SDS011;11197;53.110;8.468;2023-08-06T03:19:41;4.35;;;3.10;;
22064;SDS011;11197;53.110;8.468;2023-08-06T03:22:07;5.97;;;3.40;;
22064;SDS011;11197;53.110;8.468;2023-08-06T03:24:34;5.20;;;3.17;;
22064;SDS011;11197;53.110;8.468;2023-08-06T03:27:01;3.75;;;2.60;;
22064;SDS011;11197;53.110;8.468;2023-08-06T03:29:27;4.53;;;3.30;;
22064;SDS011;11197;53.110;8.468;2023-08-06T03:31:56;5.15;;;3.25;;
22064;SDS011;11197;53.110;8.468;2023-08-06T03:34:22;4.90;;;2.97;;
22064;SDS011;11197;53.110;8.468;2023-08-06T03:36:49;4.10;;;3.25;;
22064;SDS011;11197;53.110;8.468;2023-08-06T03:39:16;4.47;;;3.25;;
22064;SDS011;11197;53.110;8.468;2023-08-06T03:41:42;4.70;;;3.50;;
22064;SDS011;11197;53.110;8.468;2023-08-06T03:44:08;5.47;;;3.38;;
22064;SDS011;11197;53.110;8.468;2023-08-06T03:46:34;4.68;;;3.28;;
22064;SDS011;11197;53.110;8.468;2023-08-06T03:49:02;6.88;;;4.20;;
22064;SDS011;11197;53.110;8.468;2023-08-06T03:51:28;5.35;;;3.80;;
22064;SDS011;11197;53.110;8.468;2023-08-06T03:53:55;5.38;;;4.43;;
22064;SDS011;11197;53.110;8.468;2023-08-06T03:56:24;4.82;;;4.20;;
22064;SDS011;11197;53.110;8.468;2023-08-06T03:58:49;6.60;;;4.32;;
22064;SDS011;11197;53.110;8.468;2023-08-06T04:01:16;7.30;;;4.25;;
22064;SDS011;11197;53.110;8.468;2023-08-06T04:03:44;6.03;;;4.18;;
22064;SDS011;11197;53.110;8.468;2023-08-06T04:06:10;5.57;;;4.13;;
22064;SDS011;11197;53.110;8.468;2023-08-06T04:08:36;8.50;;;4.60;;
22064;SDS011;11197;53.110;8.468;2023-08-06T04:11:02;5.65;;;3.53;;
22064;SDS011;11197;53.110;8.468;2023-08-06T04:13:28;4.95;;;3.55;;
22064;SDS011;11197;53.110;8.468;2023-08-06T04:16:00;6.43;;;5.00;;
22064;SDS011;11197;53.110;8.468;2023-08-06T04:18:30;5.85;;;4.90;;
22064;SDS011;11197;53.110;8.468;2023-08-06T04:20:56;6.75;;;4.68;;
22064;SDS011;11197;53.110;8.468;2023-08-06T04:23:24;6.65;;;3.70;;
22064;SDS011;11197;53.110;8.468;2023-08-06T04:25:56;5.13;;;3.67;;
22064;SDS011;11197;53.110;8.468;2023-08-06T04:28:23;6.28;;;3.67;;
22064;SDS011;11197;53.110;8.468;2023-08-06T04:30:49;5.53;;;4.10;;
22064;SDS011;11197;53.110;8.468;2023-08-06T04:33:16;5.95;;;4.22;;
22064;SDS011;11197;53.110;8.468;2023-08-06T04:35:44;7.70;;;4.45;;
22064;SDS011;11197;53.110;8.468;2023-08-06T04:38:11;5.78;;;4.97;;
22064;SDS011;11197;53.110;8.468;2023-08-06T04:40:37;6.47;;;3.92;;
22064;SDS011;11197;53.110;8.468;2023-08-06T04:43:03;7.40;;;4.85;;
22064;SDS011;11197;53.110;8.468;2023-08-06T04:45:32;5.43;;;4.55;;
22064;SDS011;11197;53.110;8.468;2023-08-06T04:48:00;6.75;;;4.35;;
22064;SDS011;11197;53.110;8.468;2023-08-06T04:50:29;7.18;;;4.75;;
22064;SDS011;11197;53.110;8.468;2023-08-06T04:52:55;4.32;;;3.55;;
22064;SDS011;11197;53.110;8.468;2023-08-06T04:55:22;5.60;;;4.50;;
22064;SDS011;11197;53.110;8.468;2023-08-06T04:57:47;5.82;;;4.40;;
22064;SDS011;11197;53.110;8.468;2023-08-06T05:00:13;4.72;;;4.13;;
22064;SDS011;11197;53.110;8.468;2023-08-06T05:02:39;6.07;;;4.85;;
22064;SDS011;11197;53.110;8.468;2023-08-06T05:05:04;5.85;;;4.80;;
22064;SDS011;11197;53.110;8.468;2023-08-06T05:07:30;5.80;;;4.18;;
22064;SDS011;11197;53.110;8.468;2023-08-06T05:09:56;5.65;;;4.28;;
22064;SDS011;11197;53.110;8.468;2023-08-06T05:12:22;5.95;;;5.10;;
22064;SDS011;11197;53.110;8.468;2023-08-06T05:14:49;6.18;;;5.38;;
22064;SDS011;11197;53.110;8.468;2023-08-06T05:17:17;6.80;;;5.07;;
22064;SDS011;11197;53.110;8.468;2023-08-06T05:19:44;5.15;;;3.92;;
22064;SDS011;11197;53.110;8.468;2023-08-06T05:22:10;9.55;;;5.43;;
22064;SDS011;11197;53.110;8.468;2023-08-06T05:24:36;8.13;;;5.93;;
22064;SDS011;11197;53.110;8.468;2023-08-06T05:27:02;6.18;;;4.60;;
22064;SDS011;11197;53.110;8.468;2023-08-06T05:29:28;8.35;;;5.75;;
22064;SDS011;11197;53.110;8.468;2023-08-06T05:31:54;7.07;;;5.68;;
22064;SDS011;11197;53.110;8.468;2023-08-06T05:34:19;6.97;;;5.53;;
22064;SDS011;11197;53.110;8.468;2023-08-06T05:36:45;7.00;;;5.00;;
22064;SDS011;11197;53.110;8.468;2023-08-06T05:39:11;6.78;;;5.40;;
22064;SDS011;11197;53.110;8.468;2023-08-06T05:41:36;7.68;;;6.32;;
22064;SDS011;11197;53.110;8.468;2023-08-06T05:44:02;7.00;;;5.88;;
22064;SDS011;11197;53.110;8.468;2023-08-06T05:46:28;6.40;;;5.75;;
22064;SDS011;11197;53.110;8.468;2023-08-06T05:48:53;8.05;;;5.95;;
22064;SDS011;11197;53.110;8.468;2023-08-06T05:51:26;10.23;;;6.05;;
22064;SDS011;11197;53.110;8.468;2023-08-06T05:53:52;7.80;;;5.20;;
22064;SDS011;11197;53.110;8.468;2023-08-06T05:56:18;7.75;;;6.20;;
22064;SDS011;11197;53.110;8.468;2023-08-06T05:58:43;10.32;;;6.15;;
22064;SDS011;11197;53.110;8.468;2023-08-06T06:01:11;9.00;;;6.35;;
22064;SDS011;11197;53.110;8.468;2023-08-06T06:03:37;10.48;;;6.78;;
22064;SDS011;11197;53.110;8.468;2023-08-06T06:06:03;8.02;;;6.47;;
22064;SDS011;11197;53.110;8.468;2023-08-06T06:08:31;8.80;;;6.95;;
22064;SDS011;11197;53.110;8.468;2023-08-06T06:10:57;9.75;;;6.32;;
22064;SDS011;11197;53.110;8.468;2023-08-06T06:13:23;9.73;;;6.20;;
22064;SDS011;11197;53.110;8.468;2023-08-06T06:15:49;7.63;;;6.03;;
22064;SDS011;11197;53.110;8.468;2023-08-06T06:18:14;7.28;;;6.13;;
22064;SDS011;11197;53.110;8.468;2023-08-06T06:20:40;7.25;;;6.55;;
22064;SDS011;11197;53.110;8.468;2023-08-06T06:23:09;7.32;;;5.88;;
22064;SDS011;11197;53.110;8.468;2023-08-06T06:25:41;7.82;;;6.18;;
22064;SDS011;11197;53.110;8.468;2023-08-06T06:28:16;7.22;;;6.53;;
22064;SDS011;11197;53.110;8.468;2023-08-06T06:30:42;7.75;;;6.22;;
22064;SDS011;11197;53.110;8.468;2023-08-06T06:33:09;8.07;;;5.88;;
22064;SDS011;11197;53.110;8.468;2023-08-06T06:35:35;8.38;;;5.93;;
22064;SDS011;11197;53.110;8.468;2023-08-06T06:38:02;8.90;;;6.85;;
22064;SDS011;11197;53.110;8.468;2023-08-06T06:40:28;7.40;;;5.95;;
22064;SDS011;11197;53.110;8.468;2023-08-06T06:42:54;7.82;;;5.80;;
22064;SDS011;11197;53.110;8.468;2023-08-06T06:45:21;7.75;;;5.78;;
22064;SDS011;11197;53.110;8.468;2023-08-06T06:47:47;8.48;;;5.57;;
22064;SDS011;11197;53.110;8.468;2023-08-06T06:50:15;6.15;;;5.43;;
22064;SDS011;11197;53.110;8.468;2023-08-06T06:52:41;7.50;;;6.70;;
22064;SDS011;11197;53.110;8.468;2023-08-06T06:55:07;7.07;;;6.10;;
22064;SDS011;11197;53.110;8.468;2023-08-06T06:57:35;7.43;;;6.03;;
22064;SDS011;11197;53.110;8.468;2023-08-06T07:00:00;6.43;;;5.60;;
22064;SDS011;11197;53.110;8.468;2023-08-06T07:02:26;8.25;;;6.13;;
22064;SDS011;11197;53.110;8.468;2023-08-06T07:04:53;6.63;;;5.50;;
22064;SDS011;11197;53.110;8.468;2023-08-06T07:07:19;6.07;;;5.47;;
22064;SDS011;11197;53.110;8.468;2023-08-06T07:09:46;7.55;;;5.60;;
22064;SDS011;11197;53.110;8.468;2023-08-06T07:12:12;6.05;;;5.45;;
22064;SDS011;11197;53.110;8.468;2023-08-06T07:14:38;6.32;;;5.50;;
22064;SDS011;11197;53.110;8.468;2023-08-06T07:17:08;7.15;;;5.03;;
22064;SDS011;11197;53.110;8.468;2023-08-06T07:19:33;5.72;;;4.53;;
22064;SDS011;11197;53.110;8.468;2023-08-06T07:21:59;4.97;;;2.80;;
22064;SDS011;11197;53.110;8.468;2023-08-06T07:24:25;3.95;;;3.53;;
22064;SDS011;11197;53.110;8.468;2023-08-06T07:26:51;6.25;;;4.60;;
22064;SDS011;11197;53.110;8.468;2023-08-06T07:29:17;5.95;;;5.20;;
22064;SDS011;11197;53.110;8.468;2023-08-06T07:31:46;6.15;;;5.32;;
22064;SDS011;11197;53.110;8.468;2023-08-06T07:34:12;9.77;;;5.50;;
22064;SDS011;11197;53.110;8.468;2023-08-06T07:36:38;6.10;;;5.22;;
22064;SDS011;11197;53.110;8.468;2023-08-06T07:39:03;7.47;;;5.53;;
22064;SDS011;11197;53.110;8.468;2023-08-06T07:41:31;6.80;;;6.10;;
22064;SDS011;11197;53.110;8.468;2023-08-06T07:43:57;6.60;;;5.93;;
22064;SDS011;11197;53.110;8.468;2023-08-06T07:46:22;6.70;;;6.00;;
22064;SDS011;11197;53.110;8.468;2023-08-06T07:48:48;10.35;;;7.30;;
22064;SDS011;11197;53.110;8.468;2023-08-06T07:51:14;6.78;;;5.75;;
22064;SDS011;11197;53.110;8.468;2023-08-06T07:53:44;7.47;;;6.38;;
22064;SDS011;11197;53.110;8.468;2023-08-06T07:56:33;5.90;;;5.18;;
22064;SDS011;11197;53.110;8.468;2023-08-06T07:58:59;6.20;;;4.90;;
22064;SDS011;11197;53.110;8.468;2023-08-06T08:01:24;7.95;;;4.68;;
22064;SDS011;11197;53.110;8.468;2023-08-06T08:03:50;5.68;;;4.70;;
22064;SDS011;11197;53.110;8.468;2023-08-06T08:06:16;5.53;;;4.70;;
22064;SDS011;11197;53.110;8.468;2023-08-06T08:08:42;7.78;;;5.57;;
22064;SDS011;11197;53.110;8.468;2023-08-06T08:11:08;7.40;;;6.05;;
22064;SDS011;11197;53.110;8.468;2023-08-06T08:13:33;8.07;;;6.05;;
22064;SDS011;11197;53.110;8.468;2023-08-06T08:15:59;6.72;;;5.35;;
22064;SDS011;11197;53.110;8.468;2023-08-06T08:18:26;6.90;;;5.07;;
22064;SDS011;11197;53.110;8.468;2023-08-06T08:20:52;7.20;;;5.13;;
22064;SDS011;11197;53.110;8.468;2023-08-06T08:23:18;7.90;;;5.72;;
22064;SDS011;11197;53.110;8.468;2023-08-06T08:25:43;9.45;;;7.70;;
22064;SDS011;11197;53.110;8.468;2023-08-06T08:28:09;10.60;;;9.43;;
22064;SDS011;11197;53.110;8.468;2023-08-06T08:30:35;15.65;;;12.63;;
22064;SDS011;11197;53.110;8.468;2023-08-06T08:33:00;16.83;;;12.90;;
22064;SDS011;11197;53.110;8.468;2023-08-06T08:35:26;13.45;;;11.40;;
22064;SDS011;11197;53.110;8.468;2023-08-06T08:37:52;16.55;;;14.30;;
22064;SDS011;11197;53.110;8.468;2023-08-06T08:40:17;19.75;;;15.55;;
22064;SDS011;11197;53.110;8.468;2023-08-06T08:42:43;18.42;;;15.48;;
22064;SDS011;11197;53.110;8.468;2023-08-06T08:45:13;20.33;;;16.77;;
22064;SDS011;11197;53.110;8.468;2023-08-06T08:47:43;20.08;;;16.83;;
22064;SDS011;11197;53.110;8.468;2023-08-06T08:50:10;22.10;;;18.03;;
22064;SDS011;11197;53.110;8.468;2023-08-06T08:52:39;23.25;;;18.30;;
22064;SDS011;11197;53.110;8.468;2023-08-06T08:55:06;24.90;;;20.58;;
22064;SDS011;11197;53.110;8.468;2023-08-06T08:57:33;23.52;;;21.02;;
22064;SDS011;11197;53.110;8.468;2023-08-06T08:59:59;22.73;;;20.27;;
22064;SDS011;11197;53.110;8.468;2023-08-06T09:02:25;25.05;;;20.77;;
22064;SDS011;11197;53.110;8.468;2023-08-06T09:04:56;22.35;;;19.95;;
22064;SDS011;11197;53.110;8.468;2023-08-06T09:07:26;25.90;;;21.08;;
22064;SDS011;11197;53.110;8.468;2023-08-06T09:09:53;22.13;;;19.27;;
22064;SDS011;11197;53.110;8.468;2023-08-06T09:12:20;22.13;;;19.55;;
22064;SDS011;11197;53.110;8.468;2023-08-06T09:14:47;23.33;;;19.10;;
22064;SDS011;11197;53.110;8.468;2023-08-06T09:17:13;22.30;;;19.90;;
22064;SDS011;11197;53.110;8.468;2023-08-06T09:19:42;23.55;;;20.38;;
22064;SDS011;11197;53.110;8.468;2023-08-06T09:22:12;19.58;;;17.48;;
22064;SDS011;11197;53.110;8.468;2023-08-06T09:24:42;20.88;;;17.08;;
22064;SDS011;11197;53.110;8.468;2023-08-06T09:27:11;16.83;;;15.02;;
22064;SDS011;11197;53.110;8.468;2023-08-06T09:29:45;16.73;;;14.95;;
22064;SDS011;11197;53.110;8.468;2023-08-06T09:32:11;17.80;;;15.07;;
22064;SDS011;11197;53.110;8.468;2023-08-06T09:34:38;19.35;;;14.40;;
22064;SDS011;11197;53.110;8.468;2023-08-06T09:37:08;17.83;;;14.33;;
22064;SDS011;11197;53.110;8.468;2023-08-06T09:39:36;15.23;;;13.50;;
22064;SDS011;11197;53.110;8.468;2023-08-06T09:42:03;15.60;;;12.88;;
22064;SDS011;11197;53.110;8.468;2023-08-06T09:44:30;12.95;;;11.65;;
22064;SDS011;11197;53.110;8.468;2023-08-06T09:46:58;11.02;;;10.02;;
22064;SDS011;11197;53.110;8.468;2023-08-06T09:49:26;11.88;;;10.68;;
22064;SDS011;11197;53.110;8.468;2023-08-06T09:51:53;10.55;;;9.52;;
22064;SDS011;11197;53.110;8.468;2023-08-06T09:54:24;7.90;;;7.10;;
22064;SDS011;11197;53.110;8.468;2023-08-06T09:56:54;7.82;;;6.00;;
22064;SDS011;11197;53.110;8.468;2023-08-06T09:59:21;9.25;;;6.70;;
22064;SDS011;11197;53.110;8.468;2023-08-06T10:01:50;8.00;;;7.25;;
22064;SDS011;11197;53.110;8.468;2023-08-06T10:04:16;10.90;;;9.77;;
22064;SDS011;11197;53.110;8.468;2023-08-06T10:06:43;9.18;;;8.27;;
22064;SDS011;11197;53.110;8.468;2023-08-06T10:09:12;8.13;;;7.35;;
22064;SDS011;11197;53.110;8.468;2023-08-06T10:11:38;8.60;;;6.25;;
22064;SDS011;11197;53.110;8.468;2023-08-06T10:14:16;6.20;;;5.60;;
22064;SDS011;11197;53.110;8.468;2023-08-06T10:16:54;5.20;;;4.70;;
22064;SDS011;11197;53.110;8.468;2023-08-06T10:19:23;5.50;;;4.70;;
22064;SDS011;11197;53.110;8.468;2023-08-06T10:22:12;4.50;;;3.95;;
22064;SDS011;11197;53.110;8.468;2023-08-06T10:24:45;3.40;;;2.90;;
22064;SDS011;11197;53.110;8.468;2023-08-06T10:27:19;3.40;;;2.80;;
22064;SDS011;11197;53.110;8.468;2023-08-06T10:29:53;4.45;;;2.80;;
22064;SDS011;11197;53.110;8.468;2023-08-06T10:32:19;2.72;;;1.95;;
22064;SDS011;11197;53.110;8.468;2023-08-06T10:34:58;2.78;;;2.08;;
22064;SDS011;11197;53.110;8.468;2023-08-06T10:37:35;2.50;;;2.20;;
22064;SDS011;11197;53.110;8.468;2023-08-06T10:40:02;2.92;;;1.90;;
22064;SDS011;11197;53.110;8.468;2023-08-06T10:42:28;3.65;;;1.98;;
22064;SDS011;11197;53.110;8.468;2023-08-06T10:45:10;4.13;;;2.20;;
22064;SDS011;11197;53.110;8.468;2023-08-06T10:47:41;2.95;;;1.90;;
22064;SDS011;11197;53.110;8.468;2023-08-06T10:50:07;3.88;;;1.88;;
22064;SDS011;11197;53.110;8.468;2023-08-06T10:52:35;2.65;;;1.80;;
22064;SDS011;11197;53.110;8.468;2023-08-06T10:55:01;3.58;;;1.92;;
22064;SDS011;11197;53.110;8.468;2023-08-06T10:57:27;2.40;;;1.80;;
22064;SDS011;11197;53.110;8.468;2023-08-06T10:59:53;2.88;;;1.70;;
22064;SDS011;11197;53.110;8.468;2023-08-06T11:02:18;2.58;;;1.63;;
22064;SDS011;11197;53.110;8.468;2023-08-06T11:04:44;3.05;;;1.60;;
22064;SDS011;11197;53.110;8.468;2023-08-06T11:07:10;2.55;;;1.60;;
22064;SDS011;11197;53.110;8.468;2023-08-06T11:09:37;3.75;;;1.60;;
22064;SDS011;11197;53.110;8.468;2023-08-06T11:12:02;2.05;;;1.40;;
22064;SDS011;11197;53.110;8.468;2023-08-06T11:14:34;4.40;;;1.83;;
22064;SDS011;11197;53.110;8.468;2023-08-06T11:17:21;3.10;;;1.70;;
22064;SDS011;11197;53.110;8.468;2023-08-06T11:19:46;3.00;;;1.92;;
22064;SDS011;11197;53.110;8.468;2023-08-06T11:22:14;2.45;;;2.00;;
22064;SDS011;11197;53.110;8.468;2023-08-06T11:24:40;3.05;;;1.92;;
22064;SDS011;11197;53.110;8.468;2023-08-06T11:27:12;3.53;;;1.90;;
22064;SDS011;11197;53.110;8.468;2023-08-06T11:29:38;2.72;;;1.70;;
22064;SDS011;11197;53.110;8.468;2023-08-06T11:32:05;2.38;;;1.70;;
22064;SDS011;11197;53.110;8.468;2023-08-06T11:34:31;3.28;;;1.60;;
22064;SDS011;11197;53.110;8.468;2023-08-06T11:36:57;2.70;;;1.70;;
22064;SDS011;11197;53.110;8.468;2023-08-06T11:39:23;3.15;;;1.73;;
22064;SDS011;11197;53.110;8.468;2023-08-06T11:41:49;2.13;;;1.35;;
22064;SDS011;11197;53.110;8.468;2023-08-06T11:44:15;2.88;;;1.42;;
22064;SDS011;11197;53.110;8.468;2023-08-06T11:46:53;2.28;;;1.40;;
22064;SDS011;11197;53.110;8.468;2023-08-06T11:49:40;2.28;;;1.50;;
22064;SDS011;11197;53.110;8.468;2023-08-06T11:54:38;2.88;;;1.83;;
22064;SDS011;11197;53.110;8.468;2023-08-06T11:57:07;3.42;;;1.90;;
22064;SDS011;11197;53.110;8.468;2023-08-06T11:59:33;2.67;;;1.90;;
22064;SDS011;11197;53.110;8.468;2023-08-06T12:02:03;3.90;;;2.13;;
22064;SDS011;11197;53.110;8.468;2023-08-06T12:04:54;2.65;;;2.10;;
22064;SDS011;11197;53.110;8.468;2023-08-06T12:07:25;3.22;;;2.00;;
22064;SDS011;11197;53.110;8.468;2023-08-06T12:09:52;3.30;;;2.28;;
22064;SDS011;11197;53.110;8.468;2023-08-06T12:12:18;3.13;;;2.50;;
22064;SDS011;11197;53.110;8.468;2023-08-06T12:14:43;6.75;;;2.65;;
22064;SDS011;11197;53.110;8.468;2023-08-06T12:17:09;4.03;;;2.40;;
22064;SDS011;11197;53.110;8.468;2023-08-06T12:19:36;3.45;;;2.22;;
22064;SDS011;11197;53.110;8.468;2023-08-06T12:22:01;3.40;;;2.60;;
22064;SDS011;11197;53.110;8.468;2023-08-06T12:24:28;3.70;;;2.60;;
22064;SDS011;11197;53.110;8.468;2023-08-06T12:26:57;4.10;;;2.30;;
22064;SDS011;11197;53.110;8.468;2023-08-06T12:29:23;5.40;;;2.60;;
22064;SDS011;11197;53.110;8.468;2023-08-06T12:31:50;3.67;;;2.65;;
22064;SDS011;11197;53.110;8.468;2023-08-06T12:34:16;3.47;;;2.47;;
22064;SDS011;11197;53.110;8.468;2023-08-06T12:36:41;3.10;;;2.42;;
22064;SDS011;11197;53.110;8.468;2023-08-06T12:39:07;4.60;;;2.40;;
22064;SDS011;11197;53.110;8.468;2023-08-06T12:41:33;4.35;;;2.30;;
22064;SDS011;11197;53.110;8.468;2023-08-06T12:43:59;5.22;;;2.17;;
22064;SDS011;11197;53.110;8.468;2023-08-06T12:46:24;4.35;;;2.20;;
22064;SDS011;11197;53.110;8.468;2023-08-06T12:48:50;3.30;;;2.10;;
22064;SDS011;11197;53.110;8.468;2023-08-06T12:51:16;3.58;;;2.30;;
22064;SDS011;11197;53.110;8.468;2023-08-06T12:53:42;2.88;;;2.20;;
22064;SDS011;11197;53.110;8.468;2023-08-06T12:56:07;4.78;;;2.33;;
22064;SDS011;11197;53.110;8.468;2023-08-06T12:58:33;4.18;;;2.40;;
22064;SDS011;11197;53.110;8.468;2023-08-06T13:00:59;3.65;;;2.40;;
22064;SDS011;11197;53.110;8.468;2023-08-06T13:03:25;4.07;;;2.30;;
22064;SDS011;11197;53.110;8.468;2023-08-06T13:05:50;3.20;;;2.30;;
22064;SDS011;11197;53.110;8.468;2023-08-06T13:08:17;3.50;;;2.13;;
22064;SDS011;11197;53.110;8.468;2023-08-06T13:10:42;2.95;;;2.08;;
22064;SDS011;11197;53.110;8.468;2023-08-06T13:13:09;3.35;;;2.00;;
22064;SDS011;11197;53.110;8.468;2023-08-06T13:16:03;3.95;;;1.95;;
22064;SDS011;11197;53.110;8.468;2023-08-06T13:18:29;2.75;;;1.92;;
22064;SDS011;11197;53.110;8.468;2023-08-06T13:20:54;4.38;;;2.08;;
22064;SDS011;11197;53.110;8.468;2023-08-06T13:23:20;3.97;;;2.10;;
22064;SDS011;11197;53.110;8.468;2023-08-06T13:25:46;4.55;;;2.10;;
22064;SDS011;11197;53.110;8.468;2023-08-06T13:28:12;2.92;;;1.95;;
22064;SDS011;11197;53.110;8.468;2023-08-06T13:30:39;5.82;;;2.10;;
22064;SDS011;11197;53.110;8.468;2023-08-06T13:33:10;2.70;;;1.75;;
22064;SDS011;11197;53.110;8.468;2023-08-06T13:35:37;3.60;;;2.15;;
22064;SDS011;11197;53.110;8.468;2023-08-06T13:38:03;4.35;;;1.80;;
22064;SDS011;11197;53.110;8.468;2023-08-06T13:40:29;4.18;;;2.50;;
22064;SDS011;11197;53.110;8.468;2023-08-06T13:42:57;5.57;;;2.35;;
22064;SDS011;11197;53.110;8.468;2023-08-06T13:45:23;3.50;;;2.20;;
22064;SDS011;11197;53.110;8.468;2023-08-06T13:47:49;4.72;;;2.20;;
22064;SDS011;11197;53.110;8.468;2023-08-06T13:50:15;3.15;;;2.10;;
22064;SDS011;11197;53.110;8.468;2023-08-06T13:52:41;4.75;;;2.30;;
22064;SDS011;11197;53.110;8.468;2023-08-06T13:55:06;3.50;;;2.55;;
22064;SDS011;11197;53.110;8.468;2023-08-06T13:57:33;5.55;;;2.58;;
22064;SDS011;11197;53.110;8.468;2023-08-06T14:00:00;3.05;;;2.20;;
22064;SDS011;11197;53.110;8.468;2023-08-06T14:02:26;4.30;;;2.63;;
22064;SDS011;11197;53.110;8.468;2023-08-06T14:04:54;6.32;;;3.08;;
22064;SDS011;11197;53.110;8.468;2023-08-06T14:07:20;5.88;;;3.15;;
22064;SDS011;11197;53.110;8.468;2023-08-06T14:09:46;4.57;;;2.67;;
22064;SDS011;11197;53.110;8.468;2023-08-06T14:12:12;4.15;;;2.88;;
22064;SDS011;11197;53.110;8.468;2023-08-06T14:14:39;5.13;;;2.92;;
22064;SDS011;11197;53.110;8.468;2023-08-06T14:17:05;5.32;;;2.67;;
22064;SDS011;11197;53.110;8.468;2023-08-06T14:19:31;5.85;;;2.80;;
22064;SDS011;11197;53.110;8.468;2023-08-06T14:21:57;4.60;;;2.80;;
22064;SDS011;11197;53.110;8.468;2023-08-06T14:24:23;3.83;;;2.55;;
22064;SDS011;11197;53.110;8.468;2023-08-06T14:26:48;5.75;;;2.90;;
22064;SDS011;11197;53.110;8.468;2023-08-06T14:29:14;7.75;;;2.88;;
22064;SDS011;11197;53.110;8.468;2023-08-06T14:31:40;4.95;;;2.63;;
22064;SDS011;11197;53.110;8.468;2023-08-06T14:34:07;4.45;;;3.03;;
22064;SDS011;11197;53.110;8.468;2023-08-06T14:36:33;7.05;;;3.30;;
22064;SDS011;11197;53.110;8.468;2023-08-06T14:38:59;4.72;;;2.83;;
22064;SDS011;11197;53.110;8.468;2023-08-06T14:41:25;5.40;;;2.75;;
22064;SDS011;11197;53.110;8.468;2023-08-06T14:43:51;4.22;;;2.92;;
22064;SDS011;11197;53.110;8.468;2023-08-06T14:46:18;5.32;;;3.17;;
22064;SDS011;11197;53.110;8.468;2023-08-06T14:48:43;9.15;;;3.55;;
22064;SDS011;11197;53.110;8.468;2023-08-06T14:51:09;4.28;;;2.88;;
22064;SDS011;11197;53.110;8.468;2023-08-06T14:53:35;4.93;;;2.55;;